sensor_id;sensor_type;location;lat;lon;timestamp;P1;durP1;ratioP1;P2;durP2;ratioP2
35330;SDS011;21441;52.190;20.910;2024-01-07T00:01:45;15.35;;;9.18;;
35330;SDS011;21441;52.190;20.910;2024-01-07T00:04:12;16.15;;;10.30;;
35330;SDS011;21441;52.190;20.910;2024-01-07T00:06:40;18.42;;;9.85;;
35330;SDS011;21441;52.190;20.910;2024-01-07T00:09:07;17.85;;;9.30;;
35330;SDS011;21441;52.190;20.910;2024-01-07T00:11:36;14.18;;;8.60;;
35330;SDS011;21441;52.190;20.910;2024-01-07T00:14:03;16.63;;;9.30;;
35330;SDS011;21441;52.190;20.910;2024-01-07T00:16:30;18.27;;;9.15;;
35330;SDS011;21441;52.190;20.910;2024-01-07T00:18:57;16.52;;;10.05;;
35330;SDS011;21441;52.190;20.910;2024-01-07T00:21:24;17.75;;;10.60;;
35330;SDS011;21441;52.190;20.910;2024-01-07T00:23:50;17.35;;;10.35;;
35330;SDS011;21441;52.190;20.910;2024-01-07T00:26:17;19.88;;;9.38;;
35330;SDS011;21441;52.190;20.910;2024-01-07T00:28:45;17.20;;;9.30;;
35330;SDS011;21441;52.190;20.910;2024-01-07T00:31:13;15.68;;;9.90;;
35330;SDS011;21441;52.190;20.910;2024-01-07T00:33:39;20.52;;;11.93;;
35330;SDS011;21441;52.190;20.910;2024-01-07T00:36:06;20.85;;;11.15;;
35330;SDS011;21441;52.190;20.910;2024-01-07T00:38:33;18.00;;;10.32;;
35330;SDS011;21441;52.190;20.910;2024-01-07T00:41:01;17.35;;;9.15;;
35330;SDS011;21441;52.190;20.910;2024-01-07T00:43:27;19.73;;;9.68;;
35330;SDS011;21441;52.190;20.910;2024-01-07T00:45:56;21.92;;;10.68;;
35330;SDS011;21441;52.190;20.910;2024-01-07T00:48:23;17.48;;;10.50;;
35330;SDS011;21441;52.190;20.910;2024-01-07T00:50:50;19.13;;;9.70;;
35330;SDS011;21441;52.190;20.910;2024-01-07T00:53:17;17.42;;;9.75;;
35330;SDS011;21441;52.190;20.910;2024-01-07T00:55:44;18.00;;;10.73;;
35330;SDS011;21441;52.190;20.910;2024-01-07T00:58:11;19.13;;;11.00;;
35330;SDS011;21441;52.190;20.910;2024-01-07T01:00:38;21.13;;;10.38;;
35330;SDS011;21441;52.190;20.910;2024-01-07T01:03:06;16.33;;;10.63;;
35330;SDS011;21441;52.190;20.910;2024-01-07T01:05:34;15.45;;;8.85;;
35330;SDS011;21441;52.190;20.910;2024-01-07T01:08:01;17.92;;;10.73;;
35330;SDS011;21441;52.190;20.910;2024-01-07T01:10:28;20.13;;;11.50;;
35330;SDS011;21441;52.190;20.910;2024-01-07T01:12:55;21.38;;;11.73;;
35330;SDS011;21441;52.190;20.910;2024-01-07T01:15:22;21.98;;;11.98;;
35330;SDS011;21441;52.190;20.910;2024-01-07T01:17:49;20.00;;;10.57;;
35330;SDS011;21441;52.190;20.910;2024-01-07T01:20:18;19.25;;;10.25;;
35330;SDS011;21441;52.190;20.910;2024-01-07T01:22:44;20.08;;;10.75;;
35330;SDS011;21441;52.190;20.910;2024-01-07T01:25:11;18.80;;;10.68;;
35330;SDS011;21441;52.190;20.910;2024-01-07T01:27:39;18.08;;;11.13;;
35330;SDS011;21441;52.190;20.910;2024-01-07T01:30:07;18.58;;;11.38;;
35330;SDS011;21441;52.190;20.910;2024-01-07T01:32:35;19.35;;;9.88;;
35330;SDS011;21441;52.190;20.910;2024-01-07T01:35:02;21.20;;;9.68;;
35330;SDS011;21441;52.190;20.910;2024-01-07T01:37:32;14.32;;;6.50;;
35330;SDS011;21441;52.190;20.910;2024-01-07T01:39:59;13.38;;;8.65;;
35330;SDS011;21441;52.190;20.910;2024-01-07T01:42:26;17.27;;;10.32;;
35330;SDS011;21441;52.190;20.910;2024-01-07T01:44:53;16.27;;;9.23;;
35330;SDS011;21441;52.190;20.910;2024-01-07T01:47:24;11.20;;;7.90;;
35330;SDS011;21441;52.190;20.910;2024-01-07T01:49:51;14.45;;;8.63;;
35330;SDS011;21441;52.190;20.910;2024-01-07T01:52:18;14.35;;;9.82;;
35330;SDS011;21441;52.190;20.910;2024-01-07T01:54:47;14.23;;;8.82;;
35330;SDS011;21441;52.190;20.910;2024-01-07T01:57:15;16.85;;;10.52;;
35330;SDS011;21441;52.190;20.910;2024-01-07T01:59:46;17.27;;;10.27;;
35330;SDS011;21441;52.190;20.910;2024-01-07T02:02:13;14.52;;;9.68;;
35330;SDS011;21441;52.190;20.910;2024-01-07T02:04:40;15.00;;;9.25;;
35330;SDS011;21441;52.190;20.910;2024-01-07T02:07:08;17.75;;;9.40;;
35330;SDS011;21441;52.190;20.910;2024-01-07T02:09:36;17.98;;;10.23;;
35330;SDS011;21441;52.190;20.910;2024-01-07T02:12:04;14.57;;;8.77;;
35330;SDS011;21441;52.190;20.910;2024-01-07T02:14:37;15.88;;;9.77;;
35330;SDS011;21441;52.190;20.910;2024-01-07T02:17:05;15.98;;;9.75;;
35330;SDS011;21441;52.190;20.910;2024-01-07T02:19:32;14.00;;;8.98;;
35330;SDS011;21441;52.190;20.910;2024-01-07T02:21:59;16.02;;;9.45;;
35330;SDS011;21441;52.190;20.910;2024-01-07T02:24:27;14.23;;;8.88;;
35330;SDS011;21441;52.190;20.910;2024-01-07T02:26:55;15.38;;;8.82;;
35330;SDS011;21441;52.190;20.910;2024-01-07T02:29:22;13.75;;;8.90;;
35330;SDS011;21441;52.190;20.910;2024-01-07T02:31:49;11.35;;;7.38;;
35330;SDS011;21441;52.190;20.910;2024-01-07T02:34:16;14.32;;;8.00;;
35330;SDS011;21441;52.190;20.910;2024-01-07T02:36:43;13.75;;;6.85;;
35330;SDS011;21441;52.190;20.910;2024-01-07T02:39:10;14.20;;;7.38;;
35330;SDS011;21441;52.190;20.910;2024-01-07T02:41:38;13.23;;;7.88;;
35330;SDS011;21441;52.190;20.910;2024-01-07T02:44:05;15.02;;;8.48;;
35330;SDS011;21441;52.190;20.910;2024-01-07T02:46:32;12.77;;;7.85;;
35330;SDS011;21441;52.190;20.910;2024-01-07T02:48:59;13.93;;;8.55;;
35330;SDS011;21441;52.190;20.910;2024-01-07T02:51:26;17.27;;;8.90;;
35330;SDS011;21441;52.190;20.910;2024-01-07T02:53:53;12.20;;;7.60;;
35330;SDS011;21441;52.190;20.910;2024-01-07T02:56:20;10.73;;;7.22;;
35330;SDS011;21441;52.190;20.910;2024-01-07T02:58:48;11.32;;;7.55;;
35330;SDS011;21441;52.190;20.910;2024-01-07T03:01:15;11.20;;;7.18;;
35330;SDS011;21441;52.190;20.910;2024-01-07T03:03:42;13.57;;;8.25;;
35330;SDS011;21441;52.190;20.910;2024-01-07T03:06:09;12.27;;;7.47;;
35330;SDS011;21441;52.190;20.910;2024-01-07T03:08:36;15.73;;;7.97;;
35330;SDS011;21441;52.190;20.910;2024-01-07T03:11:06;16.35;;;8.90;;
35330;SDS011;21441;52.190;20.910;2024-01-07T03:13:33;15.15;;;8.48;;
35330;SDS011;21441;52.190;20.910;2024-01-07T03:16:02;13.55;;;8.85;;
35330;SDS011;21441;52.190;20.910;2024-01-07T03:18:29;13.05;;;8.00;;
35330;SDS011;21441;52.190;20.910;2024-01-07T03:20:56;14.35;;;8.52;;
35330;SDS011;21441;52.190;20.910;2024-01-07T03:23:23;13.30;;;8.73;;
35330;SDS011;21441;52.190;20.910;2024-01-07T03:25:50;13.80;;;8.95;;
35330;SDS011;21441;52.190;20.910;2024-01-07T03:28:17;13.15;;;8.68;;
35330;SDS011;21441;52.190;20.910;2024-01-07T03:30:44;14.85;;;9.40;;
35330;SDS011;21441;52.190;20.910;2024-01-07T03:33:13;16.55;;;8.98;;
35330;SDS011;21441;52.190;20.910;2024-01-07T03:35:39;12.57;;;8.35;;
35330;SDS011;21441;52.190;20.910;2024-01-07T03:40:36;12.55;;;8.18;;
35330;SDS011;21441;52.190;20.910;2024-01-07T03:43:03;16.05;;;8.75;;
35330;SDS011;21441;52.190;20.910;2024-01-07T03:45:30;13.25;;;8.40;;
35330;SDS011;21441;52.190;20.910;2024-01-07T03:47:58;14.05;;;9.27;;
35330;SDS011;21441;52.190;20.910;2024-01-07T03:50:26;15.55;;;8.95;;
35330;SDS011;21441;52.190;20.910;2024-01-07T03:52:53;13.70;;;8.77;;
35330;SDS011;21441;52.190;20.910;2024-01-07T03:55:20;14.20;;;8.35;;
35330;SDS011;21441;52.190;20.910;2024-01-07T03:57:47;14.65;;;8.32;;
35330;SDS011;21441;52.190;20.910;2024-01-07T04:00:14;15.10;;;9.73;;
35330;SDS011;21441;52.190;20.910;2024-01-07T04:02:42;16.48;;;9.85;;
35330;SDS011;21441;52.190;20.910;2024-01-07T04:05:09;15.50;;;8.48;;
35330;SDS011;21441;52.190;20.910;2024-01-07T04:07:38;12.80;;;8.68;;
35330;SDS011;21441;52.190;20.910;2024-01-07T04:10:05;14.65;;;8.20;;
35330;SDS011;21441;52.190;20.910;2024-01-07T04:12:32;12.43;;;8.23;;
35330;SDS011;21441;52.190;20.910;2024-01-07T04:14:59;12.02;;;7.70;;
35330;SDS011;21441;52.190;20.910;2024-01-07T04:17:27;13.50;;;9.13;;
35330;SDS011;21441;52.190;20.910;2024-01-07T04:19:54;13.02;;;8.07;;
35330;SDS011;21441;52.190;20.910;2024-01-07T04:22:21;12.38;;;7.63;;
35330;SDS011;21441;52.190;20.910;2024-01-07T04:24:49;13.55;;;8.63;;
35330;SDS011;21441;52.190;20.910;2024-01-07T04:27:16;12.25;;;7.88;;
35330;SDS011;21441;52.190;20.910;2024-01-07T04:29:43;13.38;;;8.77;;
35330;SDS011;21441;52.190;20.910;2024-01-07T04:32:10;18.70;;;9.05;;
35330;SDS011;21441;52.190;20.910;2024-01-07T04:34:37;16.00;;;10.18;;
35330;SDS011;21441;52.190;20.910;2024-01-07T04:37:04;12.98;;;8.25;;
35330;SDS011;21441;52.190;20.910;2024-01-07T04:39:31;11.35;;;7.80;;
35330;SDS011;21441;52.190;20.910;2024-01-07T04:42:00;12.32;;;8.45;;
35330;SDS011;21441;52.190;20.910;2024-01-07T04:44:26;11.85;;;7.57;;
35330;SDS011;21441;52.190;20.910;2024-01-07T04:46:53;14.90;;;8.07;;
35330;SDS011;21441;52.190;20.910;2024-01-07T04:49:20;13.40;;;8.57;;
35330;SDS011;21441;52.190;20.910;2024-01-07T04:51:47;13.10;;;8.60;;
35330;SDS011;21441;52.190;20.910;2024-01-07T04:54:14;13.85;;;8.13;;
35330;SDS011;21441;52.190;20.910;2024-01-07T04:56:41;14.38;;;8.77;;
35330;SDS011;21441;52.190;20.910;2024-01-07T04:59:10;14.05;;;8.75;;
35330;SDS011;21441;52.190;20.910;2024-01-07T05:01:37;13.68;;;8.60;;
35330;SDS011;21441;52.190;20.910;2024-01-07T05:04:05;15.35;;;8.50;;
35330;SDS011;21441;52.190;20.910;2024-01-07T05:06:32;14.05;;;9.25;;
35330;SDS011;21441;52.190;20.910;2024-01-07T05:08:58;14.20;;;8.55;;
35330;SDS011;21441;52.190;20.910;2024-01-07T05:11:26;13.30;;;7.78;;
35330;SDS011;21441;52.190;20.910;2024-01-07T05:13:53;15.32;;;9.35;;
35330;SDS011;21441;52.190;20.910;2024-01-07T05:16:21;15.20;;;7.78;;
35330;SDS011;21441;52.190;20.910;2024-01-07T05:18:48;12.77;;;8.73;;
35330;SDS011;21441;52.190;20.910;2024-01-07T05:21:15;13.63;;;8.07;;
35330;SDS011;21441;52.190;20.910;2024-01-07T05:23:44;9.55;;;6.68;;
35330;SDS011;21441;52.190;20.910;2024-01-07T05:26:11;11.13;;;7.63;;
35330;SDS011;21441;52.190;20.910;2024-01-07T05:28:38;16.73;;;8.98;;
35330;SDS011;21441;52.190;20.910;2024-01-07T05:31:13;14.50;;;9.18;;
35330;SDS011;21441;52.190;20.910;2024-01-07T05:33:42;14.00;;;8.40;;
35330;SDS011;21441;52.190;20.910;2024-01-07T05:36:09;14.68;;;8.05;;
35330;SDS011;21441;52.190;20.910;2024-01-07T05:38:36;11.32;;;9.00;;
35330;SDS011;21441;52.190;20.910;2024-01-07T05:41:03;13.05;;;8.35;;
35330;SDS011;21441;52.190;20.910;2024-01-07T05:43:30;13.25;;;7.65;;
35330;SDS011;21441;52.190;20.910;2024-01-07T05:45:57;14.77;;;9.50;;
35330;SDS011;21441;52.190;20.910;2024-01-07T05:48:24;13.80;;;8.68;;
35330;SDS011;21441;52.190;20.910;2024-01-07T05:50:53;12.32;;;6.90;;
35330;SDS011;21441;52.190;20.910;2024-01-07T05:53:20;13.57;;;7.72;;
35330;SDS011;21441;52.190;20.910;2024-01-07T05:55:47;13.70;;;8.55;;
35330;SDS011;21441;52.190;20.910;2024-01-07T05:58:14;14.95;;;8.25;;
35330;SDS011;21441;52.190;20.910;2024-01-07T06:00:42;11.45;;;7.65;;
35330;SDS011;21441;52.190;20.910;2024-01-07T06:03:10;11.85;;;8.57;;
35330;SDS011;21441;52.190;20.910;2024-01-07T06:05:37;15.15;;;8.55;;
35330;SDS011;21441;52.190;20.910;2024-01-07T06:08:06;11.70;;;8.32;;
35330;SDS011;21441;52.190;20.910;2024-01-07T06:10:34;12.00;;;8.18;;
35330;SDS011;21441;52.190;20.910;2024-01-07T06:13:01;14.90;;;8.18;;
35330;SDS011;21441;52.190;20.910;2024-01-07T06:15:28;11.88;;;7.90;;
35330;SDS011;21441;52.190;20.910;2024-01-07T06:17:55;13.70;;;7.82;;
35330;SDS011;21441;52.190;20.910;2024-01-07T06:20:23;11.50;;;8.70;;
35330;SDS011;21441;52.190;20.910;2024-01-07T06:22:50;14.88;;;8.70;;
35330;SDS011;21441;52.190;20.910;2024-01-07T06:25:18;12.07;;;7.45;;
35330;SDS011;21441;52.190;20.910;2024-01-07T06:27:45;13.30;;;8.57;;
35330;SDS011;21441;52.190;20.910;2024-01-07T06:30:13;14.50;;;8.82;;
35330;SDS011;21441;52.190;20.910;2024-01-07T06:32:43;12.47;;;9.17;;
35330;SDS011;21441;52.190;20.910;2024-01-07T06:35:10;12.15;;;7.57;;
35330;SDS011;21441;52.190;20.910;2024-01-07T06:37:37;13.73;;;8.65;;
35330;SDS011;21441;52.190;20.910;2024-01-07T06:40:04;13.63;;;8.70;;
35330;SDS011;21441;52.190;20.910;2024-01-07T06:42:33;15.65;;;9.00;;
35330;SDS011;21441;52.190;20.910;2024-01-07T06:45:00;14.90;;;8.57;;
35330;SDS011;21441;52.190;20.910;2024-01-07T06:47:27;11.77;;;8.02;;
35330;SDS011;21441;52.190;20.910;2024-01-07T06:49:54;16.42;;;9.18;;
35330;SDS011;21441;52.190;20.910;2024-01-07T06:52:21;15.95;;;8.25;;
35330;SDS011;21441;52.190;20.910;2024-01-07T06:54:49;17.77;;;9.77;;
35330;SDS011;21441;52.190;20.910;2024-01-07T06:57:15;16.08;;;8.75;;
35330;SDS011;21441;52.190;20.910;2024-01-07T06:59:44;14.75;;;8.48;;
35330;SDS011;21441;52.190;20.910;2024-01-07T07:02:11;13.90;;;8.05;;
35330;SDS011;21441;52.190;20.910;2024-01-07T07:04:38;13.85;;;7.97;;
35330;SDS011;21441;52.190;20.910;2024-01-07T07:07:05;12.73;;;8.07;;
35330;SDS011;21441;52.190;20.910;2024-01-07T07:09:32;11.40;;;8.02;;
35330;SDS011;21441;52.190;20.910;2024-01-07T07:11:59;15.60;;;8.80;;
35330;SDS011;21441;52.190;20.910;2024-01-07T07:14:26;13.05;;;8.68;;
35330;SDS011;21441;52.190;20.910;2024-01-07T07:16:55;12.45;;;7.90;;
35330;SDS011;21441;52.190;20.910;2024-01-07T07:19:22;12.13;;;8.00;;
35330;SDS011;21441;52.190;20.910;2024-01-07T07:21:49;11.63;;;7.97;;
35330;SDS011;21441;52.190;20.910;2024-01-07T07:24:16;15.77;;;9.07;;
35330;SDS011;21441;52.190;20.910;2024-01-07T07:26:42;11.48;;;7.63;;
35330;SDS011;21441;52.190;20.910;2024-01-07T07:29:10;13.05;;;8.38;;
35330;SDS011;21441;52.190;20.910;2024-01-07T07:31:36;17.40;;;8.63;;
35330;SDS011;21441;52.190;20.910;2024-01-07T07:34:05;12.52;;;8.05;;
35330;SDS011;21441;52.190;20.910;2024-01-07T07:36:35;14.98;;;8.95;;
35330;SDS011;21441;52.190;20.910;2024-01-07T07:39:02;14.15;;;8.82;;
35330;SDS011;21441;52.190;20.910;2024-01-07T07:41:29;13.85;;;8.27;;
35330;SDS011;21441;52.190;20.910;2024-01-07T07:43:56;15.98;;;8.18;;
35330;SDS011;21441;52.190;20.910;2024-01-07T07:46:23;12.02;;;8.82;;
35330;SDS011;21441;52.190;20.910;2024-01-07T07:48:51;12.05;;;7.97;;
35330;SDS011;21441;52.190;20.910;2024-01-07T07:51:19;12.43;;;7.57;;
35330;SDS011;21441;52.190;20.910;2024-01-07T07:53:46;15.00;;;8.48;;
35330;SDS011;21441;52.190;20.910;2024-01-07T07:56:13;15.48;;;8.85;;
35330;SDS011;21441;52.190;20.910;2024-01-07T07:58:40;14.88;;;9.15;;
35330;SDS011;21441;52.190;20.910;2024-01-07T08:01:07;13.85;;;9.35;;
35330;SDS011;21441;52.190;20.910;2024-01-07T08:03:34;14.57;;;8.73;;
35330;SDS011;21441;52.190;20.910;2024-01-07T08:06:02;12.90;;;8.50;;
35330;SDS011;21441;52.190;20.910;2024-01-07T08:08:30;11.85;;;8.18;;
35330;SDS011;21441;52.190;20.910;2024-01-07T08:10:57;12.75;;;8.15;;
35330;SDS011;21441;52.190;20.910;2024-01-07T08:13:24;13.10;;;8.10;;
35330;SDS011;21441;52.190;20.910;2024-01-07T08:15:51;12.82;;;8.07;;
35330;SDS011;21441;52.190;20.910;2024-01-07T08:18:18;12.77;;;8.32;;
35330;SDS011;21441;52.190;20.910;2024-01-07T08:20:45;17.33;;;8.52;;
35330;SDS011;21441;52.190;20.910;2024-01-07T08:23:12;13.32;;;8.60;;
35330;SDS011;21441;52.190;20.910;2024-01-07T08:25:41;12.73;;;7.95;;
35330;SDS011;21441;52.190;20.910;2024-01-07T08:28:08;13.70;;;8.75;;
35330;SDS011;21441;52.190;20.910;2024-01-07T08:30:35;12.38;;;7.22;;
35330;SDS011;21441;52.190;20.910;2024-01-07T08:33:03;16.90;;;8.43;;
35330;SDS011;21441;52.190;20.910;2024-01-07T08:35:30;16.77;;;9.60;;
35330;SDS011;21441;52.190;20.910;2024-01-07T08:37:57;13.27;;;8.07;;
35330;SDS011;21441;52.190;20.910;2024-01-07T08:40:24;13.73;;;7.97;;
35330;SDS011;21441;52.190;20.910;2024-01-07T08:42:52;11.02;;;7.80;;
35330;SDS011;21441;52.190;20.910;2024-01-07T08:45:19;16.25;;;9.52;;
35330;SDS011;21441;52.190;20.910;2024-01-07T08:47:46;16.70;;;7.63;;
35330;SDS011;21441;52.190;20.910;2024-01-07T08:50:13;12.23;;;8.40;;
35330;SDS011;21441;52.190;20.910;2024-01-07T08:52:40;12.75;;;7.35;;
35330;SDS011;21441;52.190;20.910;2024-01-07T08:55:07;15.95;;;8.73;;
35330;SDS011;21441;52.190;20.910;2024-01-07T08:57:36;9.27;;;6.50;;
35330;SDS011;21441;52.190;20.910;2024-01-07T09:00:05;11.48;;;8.00;;
35330;SDS011;21441;52.190;20.910;2024-01-07T09:02:34;13.32;;;7.60;;
35330;SDS011;21441;52.190;20.910;2024-01-07T09:05:01;11.75;;;7.35;;
35330;SDS011;21441;52.190;20.910;2024-01-07T09:07:28;13.32;;;7.32;;
35330;SDS011;21441;52.190;20.910;2024-01-07T09:09:55;10.70;;;7.32;;
35330;SDS011;21441;52.190;20.910;2024-01-07T09:12:25;10.23;;;7.18;;
35330;SDS011;21441;52.190;20.910;2024-01-07T09:14:53;10.15;;;6.15;;
35330;SDS011;21441;52.190;20.910;2024-01-07T09:17:22;11.85;;;8.00;;
35330;SDS011;21441;52.190;20.910;2024-01-07T09:19:49;14.55;;;8.98;;
35330;SDS011;21441;52.190;20.910;2024-01-07T09:22:16;12.23;;;6.85;;
35330;SDS011;21441;52.190;20.910;2024-01-07T09:24:43;14.35;;;8.98;;
35330;SDS011;21441;52.190;20.910;2024-01-07T09:27:10;12.20;;;8.15;;
35330;SDS011;21441;52.190;20.910;2024-01-07T09:29:37;12.55;;;8.13;;
35330;SDS011;21441;52.190;20.910;2024-01-07T09:32:04;13.10;;;8.45;;
35330;SDS011;21441;52.190;20.910;2024-01-07T09:34:33;14.52;;;8.45;;
35330;SDS011;21441;52.190;20.910;2024-01-07T09:37:00;11.98;;;8.15;;
35330;SDS011;21441;52.190;20.910;2024-01-07T09:39:27;12.43;;;8.23;;
35330;SDS011;21441;52.190;20.910;2024-01-07T09:41:55;11.65;;;7.85;;
35330;SDS011;21441;52.190;20.910;2024-01-07T09:44:22;10.35;;;7.35;;
35330;SDS011;21441;52.190;20.910;2024-01-07T09:46:50;15.25;;;9.07;;
35330;SDS011;21441;52.190;20.910;2024-01-07T09:49:17;14.57;;;9.35;;
35330;SDS011;21441;52.190;20.910;2024-01-07T09:51:46;14.52;;;8.82;;
35330;SDS011;21441;52.190;20.910;2024-01-07T09:54:16;10.23;;;7.55;;
35330;SDS011;21441;52.190;20.910;2024-01-07T09:56:48;11.30;;;7.97;;
35330;SDS011;21441;52.190;20.910;2024-01-07T09:59:19;10.82;;;7.60;;
35330;SDS011;21441;52.190;20.910;2024-01-07T10:01:47;11.63;;;7.35;;
35330;SDS011;21441;52.190;20.910;2024-01-07T10:04:15;18.70;;;8.75;;
35330;SDS011;21441;52.190;20.910;2024-01-07T10:06:42;10.82;;;7.97;;
35330;SDS011;21441;52.190;20.910;2024-01-07T10:09:12;13.65;;;8.40;;
35330;SDS011;21441;52.190;20.910;2024-01-07T10:11:40;13.88;;;8.23;;
35330;SDS011;21441;52.190;20.910;2024-01-07T10:14:06;12.80;;;9.73;;
35330;SDS011;21441;52.190;20.910;2024-01-07T10:16:34;13.93;;;8.70;;
35330;SDS011;21441;52.190;20.910;2024-01-07T10:19:01;15.25;;;8.25;;
35330;SDS011;21441;52.190;20.910;2024-01-07T10:21:28;9.73;;;7.45;;
35330;SDS011;21441;52.190;20.910;2024-01-07T10:24:00;13.05;;;8.27;;
35330;SDS011;21441;52.190;20.910;2024-01-07T10:26:36;13.55;;;9.07;;
35330;SDS011;21441;52.190;20.910;2024-01-07T10:29:04;14.65;;;8.70;;
35330;SDS011;21441;52.190;20.910;2024-01-07T10:31:31;14.10;;;9.50;;
35330;SDS011;21441;52.190;20.910;2024-01-07T10:33:58;15.45;;;9.05;;
35330;SDS011;21441;52.190;20.910;2024-01-07T10:36:25;14.38;;;8.48;;
35330;SDS011;21441;52.190;20.910;2024-01-07T10:38:52;12.63;;;8.05;;
35330;SDS011;21441;52.190;20.910;2024-01-07T10:41:21;13.82;;;8.45;;
35330;SDS011;21441;52.190;20.910;2024-01-07T10:43:49;16.42;;;9.68;;
35330;SDS011;21441;52.190;20.910;2024-01-07T10:46:16;13.70;;;9.23;;
35330;SDS011;21441;52.190;20.910;2024-01-07T10:48:46;15.30;;;9.68;;
35330;SDS011;21441;52.190;20.910;2024-01-07T10:51:20;13.43;;;10.20;;
35330;SDS011;21441;52.190;20.910;2024-01-07T10:53:50;16.58;;;9.43;;
35330;SDS011;21441;52.190;20.910;2024-01-07T10:56:21;15.70;;;9.43;;
35330;SDS011;21441;52.190;20.910;2024-01-07T10:58:51;15.77;;;11.02;;
35330;SDS011;21441;52.190;20.910;2024-01-07T11:01:18;15.88;;;10.50;;
35330;SDS011;21441;52.190;20.910;2024-01-07T11:03:50;14.30;;;9.63;;
35330;SDS011;21441;52.190;20.910;2024-01-07T11:06:27;14.88;;;10.00;;
35330;SDS011;21441;52.190;20.910;2024-01-07T11:09:02;13.57;;;9.00;;
35330;SDS011;21441;52.190;20.910;2024-01-07T11:11:39;14.45;;;9.50;;
35330;SDS011;21441;52.190;20.910;2024-01-07T11:17:05;15.52;;;9.48;;
35330;SDS011;21441;52.190;20.910;2024-01-07T11:19:32;16.15;;;9.23;;
35330;SDS011;21441;52.190;20.910;2024-01-07T11:24:50;14.70;;;8.48;;
35330;SDS011;21441;52.190;20.910;2024-01-07T11:27:17;14.73;;;8.35;;
35330;SDS011;21441;52.190;20.910;2024-01-07T11:29:51;14.20;;;7.47;;
35330;SDS011;21441;52.190;20.910;2024-01-07T11:32:20;15.27;;;8.93;;
35330;SDS011;21441;52.190;20.910;2024-01-07T11:34:48;7.32;;;5.95;;
35330;SDS011;21441;52.190;20.910;2024-01-07T11:39:46;13.93;;;8.18;;
35330;SDS011;21441;52.190;20.910;2024-01-07T11:42:15;15.35;;;8.65;;
35330;SDS011;21441;52.190;20.910;2024-01-07T11:44:46;12.50;;;8.13;;
35330;SDS011;21441;52.190;20.910;2024-01-07T11:47:14;13.25;;;8.75;;
35330;SDS011;21441;52.190;20.910;2024-01-07T11:49:42;16.80;;;8.77;;
35330;SDS011;21441;52.190;20.910;2024-01-07T11:52:09;15.18;;;8.57;;
35330;SDS011;21441;52.190;20.910;2024-01-07T11:54:36;13.68;;;7.75;;
35330;SDS011;21441;52.190;20.910;2024-01-07T11:57:04;13.45;;;9.35;;
35330;SDS011;21441;52.190;20.910;2024-01-07T11:59:31;13.18;;;8.32;;
35330;SDS011;21441;52.190;20.910;2024-01-07T12:02:00;11.77;;;7.40;;
35330;SDS011;21441;52.190;20.910;2024-01-07T12:04:29;15.07;;;8.23;;
35330;SDS011;21441;52.190;20.910;2024-01-07T12:06:56;13.40;;;8.10;;
35330;SDS011;21441;52.190;20.910;2024-01-07T12:09:24;14.80;;;9.15;;
35330;SDS011;21441;52.190;20.910;2024-01-07T12:11:51;14.00;;;8.70;;
35330;SDS011;21441;52.190;20.910;2024-01-07T12:14:19;15.10;;;8.63;;
35330;SDS011;21441;52.190;20.910;2024-01-07T12:16:46;11.77;;;8.43;;
35330;SDS011;21441;52.190;20.910;2024-01-07T12:19:14;11.75;;;8.43;;
35330;SDS011;21441;52.190;20.910;2024-01-07T12:21:41;12.85;;;7.95;;
35330;SDS011;21441;52.190;20.910;2024-01-07T12:24:08;15.07;;;9.07;;
35330;SDS011;21441;52.190;20.910;2024-01-07T12:26:35;13.38;;;8.95;;
35330;SDS011;21441;52.190;20.910;2024-01-07T12:29:02;12.85;;;8.85;;
35330;SDS011;21441;52.190;20.910;2024-01-07T12:31:32;13.33;;;8.20;;
35330;SDS011;21441;52.190;20.910;2024-01-07T12:33:59;17.40;;;9.30;;
35330;SDS011;21441;52.190;20.910;2024-01-07T12:36:30;13.20;;;9.48;;
35330;SDS011;21441;52.190;20.910;2024-01-07T12:38:57;8.57;;;6.22;;
35330;SDS011;21441;52.190;20.910;2024-01-07T12:41:24;9.32;;;5.28;;
35330;SDS011;21441;52.190;20.910;2024-01-07T12:43:51;11.02;;;8.80;;
35330;SDS011;21441;52.190;20.910;2024-01-07T12:46:18;12.20;;;7.57;;
35330;SDS011;21441;52.190;20.910;2024-01-07T12:48:45;9.15;;;6.60;;
35330;SDS011;21441;52.190;20.910;2024-01-07T12:51:13;12.00;;;7.80;;
35330;SDS011;21441;52.190;20.910;2024-01-07T12:53:41;12.68;;;7.57;;
35330;SDS011;21441;52.190;20.910;2024-01-07T12:56:09;13.07;;;7.97;;
35330;SDS011;21441;52.190;20.910;2024-01-07T12:58:35;12.63;;;7.82;;
35330;SDS011;21441;52.190;20.910;2024-01-07T13:01:03;11.52;;;7.35;;
35330;SDS011;21441;52.190;20.910;2024-01-07T13:03:30;11.07;;;7.32;;
35330;SDS011;21441;52.190;20.910;2024-01-07T13:05:57;10.98;;;7.15;;
35330;SDS011;21441;52.190;20.910;2024-01-07T13:08:24;11.90;;;7.35;;
35330;SDS011;21441;52.190;20.910;2024-01-07T13:10:54;10.52;;;6.35;;
35330;SDS011;21441;52.190;20.910;2024-01-07T13:13:21;12.20;;;7.55;;
35330;SDS011;21441;52.190;20.910;2024-01-07T13:15:48;10.40;;;7.03;;
35330;SDS011;21441;52.190;20.910;2024-01-07T13:18:16;10.68;;;6.97;;
35330;SDS011;21441;52.190;20.910;2024-01-07T13:20:43;8.77;;;6.45;;
35330;SDS011;21441;52.190;20.910;2024-01-07T13:23:10;10.85;;;7.20;;
35330;SDS011;21441;52.190;20.910;2024-01-07T13:25:37;9.32;;;5.70;;
35330;SDS011;21441;52.190;20.910;2024-01-07T13:28:05;12.45;;;7.10;;
35330;SDS011;21441;52.190;20.910;2024-01-07T13:30:37;10.70;;;7.43;;
35330;SDS011;21441;52.190;20.910;2024-01-07T13:33:05;10.93;;;7.93;;
35330;SDS011;21441;52.190;20.910;2024-01-07T13:35:33;12.05;;;8.30;;
35330;SDS011;21441;52.190;20.910;2024-01-07T13:38:01;11.40;;;7.60;;
35330;SDS011;21441;52.190;20.910;2024-01-07T13:40:28;13.52;;;8.30;;
35330;SDS011;21441;52.190;20.910;2024-01-07T13:42:55;12.85;;;8.27;;
35330;SDS011;21441;52.190;20.910;2024-01-07T13:45:23;11.55;;;7.65;;
35330;SDS011;21441;52.190;20.910;2024-01-07T13:47:51;11.27;;;7.03;;
35330;SDS011;21441;52.190;20.910;2024-01-07T13:50:18;11.90;;;7.05;;
35330;SDS011;21441;52.190;20.910;2024-01-07T13:52:44;12.13;;;7.28;;
35330;SDS011;21441;52.190;20.910;2024-01-07T13:55:11;10.40;;;6.78;;
35330;SDS011;21441;52.190;20.910;2024-01-07T13:57:38;9.48;;;6.15;;
35330;SDS011;21441;52.190;20.910;2024-01-07T14:00:07;12.82;;;7.72;;
35330;SDS011;21441;52.190;20.910;2024-01-07T14:02:37;10.82;;;6.40;;
35330;SDS011;21441;52.190;20.910;2024-01-07T14:05:04;11.38;;;7.28;;
35330;SDS011;21441;52.190;20.910;2024-01-07T14:07:34;11.07;;;7.07;;
35330;SDS011;21441;52.190;20.910;2024-01-07T14:10:01;7.65;;;5.50;;
35330;SDS011;21441;52.190;20.910;2024-01-07T14:12:29;11.10;;;5.40;;
35330;SDS011;21441;52.190;20.910;2024-01-07T14:14:56;11.60;;;8.25;;
35330;SDS011;21441;52.190;20.910;2024-01-07T14:17:24;13.48;;;8.80;;
35330;SDS011;21441;52.190;20.910;2024-01-07T14:19:52;13.43;;;7.90;;
35330;SDS011;21441;52.190;20.910;2024-01-07T14:22:19;12.02;;;7.50;;
35330;SDS011;21441;52.190;20.910;2024-01-07T14:24:46;9.57;;;7.75;;
35330;SDS011;21441;52.190;20.910;2024-01-07T14:27:14;12.65;;;7.45;;
35330;SDS011;21441;52.190;20.910;2024-01-07T14:29:41;12.02;;;7.63;;
35330;SDS011;21441;52.190;20.910;2024-01-07T14:32:08;13.05;;;8.50;;
35330;SDS011;21441;52.190;20.910;2024-01-07T14:34:37;13.27;;;8.02;;